createdAt,value
2018-03-24T00:00:32.845Z,72.25
2018-03-24T00:03:03.622Z,72.35
2018-03-24T00:05:34.641Z,72.43
2018-03-24T00:08:05.630Z,72.47
2018-03-24T00:10:36.635Z,72.66
2018-03-24T00:13:07.605Z,72.62
2018-03-24T00:15:38.627Z,72.66
2018-03-24T00:18:09.576Z,72.73
2018-03-24T00:20:40.604Z,72.94
2018-03-24T00:23:11.229Z,73.08
2018-03-24T00:25:42.507Z,73.02
2018-03-24T00:28:13.440Z,73.61
2018-03-24T00:30:44.153Z,72.97
2018-03-24T00:33:14.693Z,73.18
2018-03-24T00:35:45.702Z,73.22
2018-03-24T00:38:16.688Z,73.02
2018-03-24T00:40:47.705Z,73.26
2018-03-24T00:43:18.628Z,73.57
2018-03-24T00:45:49.678Z,73.69
2018-03-24T00:48:20.678Z,73.69
2018-03-24T00:50:51.913Z,73.43
2018-03-24T00:53:22.727Z,72.94
2018-03-24T00:55:53.792Z,73.51
2018-03-24T00:58:24.769Z,73.40
2018-03-24T01:00:56.450Z,73.28
2018-03-24T01:03:27.115Z,73.32
2018-03-24T01:05:57.828Z,73.52
2018-03-24T01:08:28.601Z,73.46
2018-03-24T01:10:59.757Z,73.31
2018-03-24T01:13:30.417Z,73.98
2018-03-24T01:16:01.092Z,74.22
2018-03-24T01:18:31.662Z,74.33
2018-03-24T01:21:03.664Z,74.21
2018-03-24T01:23:34.320Z,73.87
2018-03-24T01:26:05.689Z,74.14
2018-03-24T01:28:36.329Z,74.27
2018-03-24T01:31:05.692Z,74.25
2018-03-24T01:33:36.289Z,74.22
2018-03-24T01:36:07.024Z,74.30
2018-03-24T01:38:37.927Z,74.22
2018-03-24T01:41:09.327Z,74.22
2018-03-24T01:43:39.993Z,74.54
2018-03-24T01:46:11.014Z,74.67
2018-03-24T01:48:41.884Z,74.42
2018-03-24T01:51:13.297Z,74.67
2018-03-24T01:53:53.961Z,74.85
2018-03-24T01:56:23.263Z,75.02
2018-03-24T01:58:52.765Z,74.82
2018-03-24T02:01:21.972Z,75.06
2018-03-24T02:03:51.228Z,75.12
2018-03-24T02:06:20.414Z,75.59
2018-03-24T02:08:51.045Z,75.29
2018-03-24T02:11:22.237Z,74.89
2018-03-24T02:13:52.763Z,74.69
2018-03-24T02:16:23.636Z,74.87
2018-03-24T02:18:55.411Z,75.36
2018-03-24T02:21:40.705Z,74.66
2018-03-24T02:24:10.145Z,74.67
2018-03-24T02:26:39.416Z,75.06
2018-03-24T02:29:08.900Z,74.48
2018-03-24T02:31:39.146Z,74.35
2018-03-24T02:34:08.422Z,74.83
2018-03-24T02:36:37.756Z,74.71
2018-03-24T02:39:07.386Z,75.00
2018-03-24T02:41:36.752Z,75.23
2018-03-24T02:44:05.953Z,75.45
2018-03-24T02:46:35.168Z,74.59
2018-03-24T02:49:04.421Z,73.92
2018-03-24T02:51:35.032Z,74.10
2018-03-24T02:54:05.110Z,74.46
2018-03-24T02:56:35.741Z,75.13
2018-03-24T02:59:06.656Z,75.40
2018-03-24T03:01:37.600Z,75.22
2018-03-24T03:04:08.596Z,75.05
2018-03-24T03:06:39.541Z,75.18
2018-03-24T03:09:10.221Z,75.48
2018-03-24T03:11:40.760Z,76.30
2018-03-24T03:14:11.704Z,76.21
2018-03-24T03:16:42.671Z,76.28
2018-03-24T03:19:13.724Z,76.16
2018-03-24T03:21:55.229Z,76.24
2018-03-24T03:24:26.587Z,76.42
2018-03-24T03:26:55.871Z,76.76
2018-03-24T03:29:25.073Z,76.50
2018-03-24T03:34:59.932Z,76.73
2018-03-24T03:37:28.905Z,76.82
2018-03-24T03:39:58.582Z,76.85
2018-03-24T03:42:27.499Z,77.05
2018-03-24T03:44:56.628Z,76.27
2018-03-24T03:47:25.524Z,76.46
2018-03-24T03:49:55.106Z,76.64
2018-03-24T03:52:24.145Z,76.29
2018-03-24T03:54:58.472Z,76.11
2018-03-24T03:57:27.638Z,76.27
2018-03-24T03:59:56.557Z,76.04
2018-03-24T04:02:25.481Z,75.91
2018-03-24T04:04:54.611Z,75.94
2018-03-24T04:07:23.549Z,76.24
2018-03-24T04:09:52.504Z,76.55
2018-03-24T04:12:21.615Z,76.73
2018-03-24T04:14:50.714Z,76.75
2018-03-24T04:17:19.789Z,76.78
2018-03-24T04:19:49.024Z,76.85
2018-03-24T04:22:18.212Z,76.71
2018-03-24T04:24:47.410Z,76.70
2018-03-24T04:27:16.764Z,76.68
2018-03-24T04:29:46.062Z,76.78
2018-03-24T04:32:15.354Z,76.84
2018-03-24T04:34:44.861Z,77.05
2018-03-24T04:37:14.028Z,76.94
2018-03-24T04:39:44.097Z,76.95
2018-03-24T04:42:14.480Z,77.02
2018-03-24T04:44:44.125Z,76.98
2018-03-24T04:47:14.818Z,76.93
2018-03-24T04:49:45.714Z,76.82
2018-03-24T04:52:16.712Z,76.59
2018-03-24T04:54:47.677Z,76.42
2018-03-24T04:57:18.623Z,76.82
2018-03-24T04:59:49.291Z,77.03
2018-03-24T05:02:19.780Z,77.39
2018-03-24T05:04:50.616Z,77.53
2018-03-24T05:07:21.682Z,77.08
2018-03-24T05:09:53.310Z,77.76
2018-03-24T05:12:25.038Z,78.02
2018-03-24T05:14:54.255Z,77.41
2018-03-24T05:17:24.782Z,77.72
2018-03-24T05:19:55.732Z,77.51
2018-03-24T05:22:26.611Z,77.47
2018-03-24T05:24:57.256Z,77.38
2018-03-24T05:27:27.708Z,77.47
2018-03-24T05:30:00.268Z,77.55
2018-03-24T05:32:30.009Z,77.57
2018-03-24T05:35:00.735Z,77.45
2018-03-24T05:37:31.295Z,77.21
2018-03-24T05:40:01.844Z,76.95
2018-03-24T05:42:32.699Z,76.82
2018-03-24T05:45:03.697Z,77.03
2018-03-24T05:47:34.668Z,76.95
2018-03-24T05:50:05.747Z,76.82
2018-03-24T05:52:36.708Z,76.97
2018-03-24T05:55:07.711Z,77.11
2018-03-24T05:57:43.917Z,77.42
2018-03-24T06:00:13.124Z,77.67
2018-03-24T06:02:42.328Z,77.19
2018-03-24T06:05:12.002Z,77.00
2018-03-24T06:07:42.826Z,77.37
2018-03-24T06:10:13.700Z,77.42
2018-03-24T06:12:44.737Z,76.29
2018-03-24T06:15:15.692Z,77.09
2018-03-24T06:17:46.802Z,77.12
2018-03-24T06:20:17.651Z,76.95
2018-03-24T06:22:48.654Z,76.46
2018-03-24T06:25:19.633Z,76.31
2018-03-24T06:27:50.672Z,77.54
2018-03-24T06:33:29.303Z,77.35
2018-03-24T06:35:58.431Z,75.95
2018-03-24T06:38:27.537Z,75.76
2018-03-24T06:40:56.635Z,77.10
2018-03-24T06:43:25.551Z,77.18
2018-03-24T06:45:54.500Z,76.51
2018-03-24T06:48:23.629Z,76.56
2018-03-24T06:50:52.563Z,76.89
2018-03-24T06:53:21.545Z,77.10
2018-03-24T06:55:50.609Z,76.53
2018-03-24T06:58:19.532Z,77.09
2018-03-24T07:00:48.456Z,77.04
2018-03-24T07:03:17.884Z,77.19
2018-03-24T07:05:47.107Z,76.49
2018-03-24T07:08:16.342Z,77.12
2018-03-24T07:10:45.673Z,76.17
2018-03-24T07:13:15.061Z,77.74
2018-03-24T07:15:44.320Z,76.54
2018-03-24T07:18:13.988Z,76.71
2018-03-24T07:20:43.193Z,76.61
2018-03-24T07:23:12.391Z,76.29
2018-03-24T07:25:42.127Z,76.51
2018-03-24T07:28:12.775Z,76.54
2018-03-24T07:30:43.180Z,77.03
2018-03-24T07:33:13.681Z,76.49
2018-03-24T07:35:44.685Z,77.65
2018-03-24T07:38:16.506Z,78.08
2018-03-24T07:40:48.043Z,77.01
2018-03-24T07:43:18.356Z,77.00
2018-03-24T07:45:49.037Z,77.96
2018-03-24T07:48:19.714Z,77.92
2018-03-24T07:50:51.188Z,77.71
2018-03-24T07:53:21.749Z,78.49
2018-03-24T07:55:52.663Z,77.53
2018-03-24T07:58:23.619Z,77.62
2018-03-24T08:00:54.696Z,77.67
2018-03-24T08:03:25.637Z,77.83
2018-03-24T08:05:56.660Z,78.01
2018-03-24T08:08:27.631Z,77.99
2018-03-24T08:10:58.650Z,77.47
2018-03-24T08:13:29.596Z,77.48
2018-03-24T08:16:00.609Z,77.92
2018-03-24T08:18:31.205Z,77.67
2018-03-24T08:21:01.801Z,77.65
2018-03-24T08:23:32.687Z,77.31
2018-03-24T08:26:03.683Z,77.26
2018-03-24T08:28:34.608Z,77.88
2018-03-24T08:31:06.824Z,77.83
2018-03-24T08:33:36.164Z,77.81
2018-03-24T08:36:06.022Z,77.76
2018-03-24T08:38:36.799Z,77.10
2018-03-24T08:41:07.804Z,77.21
2018-03-24T08:43:38.732Z,77.19
2018-03-24T08:46:11.235Z,77.08
2018-03-24T08:48:41.043Z,76.78
2018-03-24T08:51:11.765Z,76.90
2018-03-24T08:53:42.726Z,76.37
2018-03-24T08:56:13.291Z,76.07
2018-03-24T08:58:43.777Z,75.92
2018-03-24T09:01:14.648Z,75.96
2018-03-24T09:03:45.641Z,75.78
2018-03-24T09:06:16.584Z,75.26
2018-03-24T09:08:47.670Z,75.03
2018-03-24T09:11:18.612Z,74.90
2018-03-24T09:13:49.595Z,74.87
2018-03-24T09:16:20.537Z,74.28
2018-03-24T09:18:51.515Z,73.73
2018-03-24T09:21:22.488Z,73.87
2018-03-24T09:23:53.508Z,74.00
2018-03-24T09:26:24.460Z,73.47
2018-03-24T09:28:55.448Z,73.30
2018-03-24T09:31:26.801Z,73.33
2018-03-24T09:33:57.859Z,72.84
2018-03-24T09:36:28.698Z,72.41
2018-03-24T09:38:59.717Z,72.42
2018-03-24T09:41:30.318Z,71.98
2018-03-24T09:44:01.440Z,71.79
2018-03-24T09:46:35.366Z,71.58
2018-03-24T09:49:04.917Z,71.31
2018-03-24T09:51:33.957Z,70.92
2018-03-24T09:54:04.405Z,70.68
2018-03-24T09:56:35.369Z,70.48
2018-03-24T09:59:06.804Z,70.59
2018-03-24T10:01:37.670Z,70.16
2018-03-24T10:04:12.290Z,69.51
2018-03-24T10:06:42.156Z,69.19
2018-03-24T10:09:11.417Z,68.71
2018-03-24T10:11:41.982Z,68.49
2018-03-24T10:14:13.045Z,67.87
2018-03-24T10:16:43.340Z,67.18
2018-03-24T10:19:14.062Z,67.30
2018-03-24T10:22:02.750Z,67.74
2018-03-24T10:24:32.245Z,67.84
2018-03-24T10:27:01.501Z,66.80
2018-03-24T10:29:30.829Z,66.72
2018-03-24T10:32:00.431Z,67.75
2018-03-24T10:34:29.768Z,67.49
2018-03-24T10:36:59.055Z,66.72
2018-03-24T10:39:28.298Z,66.50
2018-03-24T10:41:57.809Z,66.06
2018-03-24T10:44:26.992Z,65.98
2018-03-24T10:46:56.250Z,65.19
2018-03-24T10:49:26.196Z,63.72
2018-03-24T10:51:55.389Z,62.92
2018-03-24T10:54:26.067Z,61.73
2018-03-24T10:56:56.666Z,60.80
2018-03-24T10:59:27.653Z,59.71
2018-03-24T11:01:59.134Z,60.14
2018-03-24T11:04:29.740Z,60.35
2018-03-24T11:07:00.659Z,59.68
2018-03-24T11:09:31.685Z,59.30
2018-03-24T11:12:02.642Z,59.78
2018-03-24T11:14:33.631Z,58.83
2018-03-24T11:17:04.595Z,58.51
2018-03-24T11:19:35.592Z,58.14
2018-03-24T11:22:06.500Z,57.68
2018-03-24T11:24:37.526Z,55.37
2018-03-24T11:27:08.477Z,56.15
2018-03-24T11:29:39.469Z,56.38
2018-03-24T11:32:10.081Z,55.38
2018-03-24T11:34:40.853Z,54.99
2018-03-24T11:37:11.860Z,54.96
2018-03-24T11:39:42.722Z,55.24
2018-03-24T11:42:13.668Z,55.49
2018-03-24T11:44:44.691Z,55.20
2018-03-24T11:47:15.195Z,55.04
2018-03-24T11:49:45.781Z,54.97
2018-03-24T11:52:16.622Z,53.22
2018-03-24T11:54:47.837Z,49.31
2018-03-24T11:57:18.595Z,48.04
2018-03-24T11:59:49.936Z,45.41
2018-03-24T12:02:20.695Z,45.30
2018-03-24T12:04:51.702Z,45.78
2018-03-24T12:07:24.222Z,44.59
2018-03-24T12:09:53.506Z,45.58
2018-03-24T12:12:24.077Z,45.79
2018-03-24T12:14:55.083Z,43.31
2018-03-24T12:17:25.142Z,41.20
2018-03-24T12:19:55.833Z,40.89
2018-03-24T12:22:26.960Z,41.21
2018-03-24T12:31:10.307Z,42.63
2018-03-24T12:33:39.548Z,41.50
2018-03-24T12:36:08.619Z,41.31
2018-03-24T12:38:38.764Z,38.66
2018-03-24T12:41:08.116Z,39.15
2018-03-24T12:43:37.030Z,38.16
2018-03-24T12:46:06.013Z,38.73
2018-03-24T12:48:34.927Z,40.05
2018-03-24T12:51:03.800Z,38.97
2018-03-24T12:53:32.792Z,39.36
2018-03-24T12:56:01.692Z,41.86
2018-03-24T12:58:30.613Z,41.69
2018-03-24T13:00:59.599Z,43.44
2018-03-24T13:03:28.528Z,44.04
2018-03-24T13:05:57.590Z,44.97
2018-03-24T13:08:26.587Z,42.58
2018-03-24T13:10:55.499Z,44.49
2018-03-24T13:13:24.482Z,47.36
2018-03-24T13:15:53.572Z,47.68
2018-03-24T13:18:22.559Z,47.53
2018-03-24T13:20:51.498Z,44.91
2018-03-24T13:23:20.595Z,42.38
2018-03-24T13:25:49.620Z,43.14
2018-03-24T13:28:18.510Z,43.34
2018-03-24T13:30:47.654Z,45.15
2018-03-24T13:33:16.575Z,46.00
2018-03-24T13:35:45.490Z,46.10
2018-03-24T13:38:14.787Z,46.54
2018-03-24T13:40:44.180Z,46.80
2018-03-24T13:46:17.863Z,47.28
2018-03-24T13:48:46.821Z,47.21
2018-03-24T13:51:15.756Z,47.81
2018-03-24T13:53:44.715Z,48.44
2018-03-24T13:56:13.694Z,47.66
2018-03-24T13:58:42.798Z,48.08
2018-03-24T14:01:11.713Z,48.10
2018-03-24T14:03:40.719Z,48.65
2018-03-24T14:06:10.247Z,48.40
2018-03-24T14:08:39.422Z,48.56
2018-03-24T14:11:08.622Z,48.11
2018-03-24T14:13:37.657Z,48.58
2018-03-24T14:16:06.624Z,48.51
2018-03-24T14:18:35.615Z,49.14
2018-03-24T14:21:04.550Z,48.78
2018-03-24T14:23:33.465Z,48.69
2018-03-24T14:26:02.527Z,48.85
2018-03-24T14:28:31.473Z,49.10
2018-03-24T14:31:00.657Z,49.07
2018-03-24T14:33:29.906Z,49.17
2018-03-24T14:35:59.110Z,49.21
2018-03-24T14:38:28.316Z,49.42
2018-03-24T14:40:57.628Z,49.55
2018-03-24T14:43:26.903Z,48.90
2018-03-24T14:45:56.103Z,49.13
2018-03-24T14:48:25.363Z,48.92
2018-03-24T14:50:54.591Z,48.66
2018-03-24T14:53:23.775Z,48.10
2018-03-24T14:55:53.026Z,48.34
2018-03-24T14:58:23.032Z,48.39
2018-03-24T15:00:53.791Z,48.17
2018-03-24T15:03:24.624Z,48.16
2018-03-24T15:05:55.540Z,48.53
2018-03-24T15:08:26.148Z,48.55
2018-03-24T15:10:56.770Z,47.55
2018-03-24T15:13:29.042Z,47.73
2018-03-24T15:15:59.081Z,47.16
2018-03-24T15:18:29.696Z,46.92
2018-03-24T15:21:00.704Z,46.81
2018-03-24T15:23:31.695Z,46.85
2018-03-24T15:26:02.767Z,46.67
2018-03-24T15:28:33.678Z,46.20
2018-03-24T15:31:15.125Z,47.03
2018-03-24T15:33:55.258Z,46.84
2018-03-24T15:36:35.524Z,46.92
2018-03-24T15:39:04.050Z,47.37
2018-03-24T15:41:32.983Z,47.70
2018-03-24T15:44:02.036Z,47.21
2018-03-24T15:46:31.016Z,46.82
2018-03-24T15:49:00.234Z,47.06
2018-03-24T15:51:29.556Z,47.13
2018-03-24T15:53:58.685Z,46.90
2018-03-24T15:56:27.602Z,46.75
2018-03-24T15:58:57.262Z,47.22
2018-03-24T16:01:26.516Z,46.91
2018-03-24T16:03:55.820Z,47.41
2018-03-24T16:06:25.099Z,47.64
2018-03-24T16:08:54.337Z,47.73
2018-03-24T16:11:24.547Z,47.87
2018-03-24T16:13:53.961Z,47.89
2018-03-24T16:16:23.163Z,48.13
2018-03-24T16:18:52.355Z,48.54
2018-03-24T16:21:22.129Z,48.89
2018-03-24T16:23:53.067Z,48.96
2018-03-24T16:26:23.805Z,49.27
2018-03-24T16:28:54.722Z,49.55
2018-03-24T16:31:25.766Z,49.78
2018-03-24T16:33:56.321Z,50.01
2018-03-24T16:36:26.843Z,49.99
2018-03-24T16:38:57.651Z,49.15
2018-03-24T16:41:28.692Z,49.85
2018-03-24T16:43:59.665Z,49.67
2018-03-24T16:46:30.801Z,49.59
2018-03-24T16:49:01.740Z,49.55
2018-03-24T16:51:32.922Z,49.60
2018-03-24T16:54:03.710Z,49.78
2018-03-24T16:56:34.747Z,50.11
2018-03-24T16:59:05.792Z,50.51
2018-03-24T17:01:36.670Z,50.66
2018-03-24T17:04:07.656Z,50.87
2018-03-24T17:06:38.377Z,51.33
2018-03-24T17:09:09.008Z,51.61
2018-03-24T17:11:39.816Z,51.92
2018-03-24T17:14:10.828Z,52.24
2018-03-24T17:16:41.754Z,52.60
2018-03-24T17:19:12.728Z,52.87
2018-03-24T17:21:43.704Z,52.64
2018-03-24T17:24:14.656Z,52.73
2018-03-24T17:26:45.297Z,53.14
2018-03-24T17:29:15.681Z,53.45
2018-03-24T17:31:46.421Z,53.65
2018-03-24T17:34:17.059Z,53.85
2018-03-24T17:36:47.880Z,53.97
2018-03-24T17:39:18.719Z,54.05
2018-03-24T17:41:49.675Z,54.13
2018-03-24T17:44:20.675Z,54.14
2018-03-24T17:46:51.740Z,54.16
2018-03-24T17:49:22.679Z,54.55
2018-03-24T17:51:53.339Z,54.89
2018-03-24T17:54:24.101Z,55.13
2018-03-24T17:56:54.754Z,55.22
2018-03-24T17:59:25.919Z,55.26
2018-03-24T18:01:56.846Z,55.32
2018-03-24T18:04:27.719Z,55.62
2018-03-24T18:06:59.053Z,55.50
2018-03-24T18:09:29.002Z,55.89
2018-03-24T18:11:59.794Z,55.78
2018-03-24T18:14:30.687Z,56.00
2018-03-24T18:17:01.430Z,55.94
2018-03-24T18:19:32.076Z,55.93
2018-03-24T18:22:02.054Z,56.02
2018-03-24T18:24:32.751Z,56.05
2018-03-24T18:27:03.791Z,56.11
2018-03-24T18:29:34.697Z,56.25
2018-03-24T18:32:05.447Z,56.23
2018-03-24T18:34:36.086Z,56.05
2018-03-24T18:37:06.802Z,56.22
2018-03-24T18:39:37.755Z,56.24
2018-03-24T18:42:08.751Z,56.36
2018-03-24T18:44:39.379Z,56.52
2018-03-24T18:47:10.163Z,56.54
2018-03-24T18:49:40.781Z,56.38
2018-03-24T18:52:11.785Z,56.63
2018-03-24T18:54:42.655Z,56.63
2018-03-24T18:57:13.314Z,56.75
2018-03-24T18:59:43.835Z,56.80
2018-03-24T19:02:14.770Z,56.83
2018-03-24T19:04:45.750Z,56.91
2018-03-24T19:07:16.747Z,56.98
2018-03-24T19:09:47.407Z,57.03
2018-03-24T19:12:18.170Z,57.06
2018-03-24T19:14:48.089Z,56.91
2018-03-24T19:17:18.750Z,56.96
2018-03-24T19:19:49.797Z,57.73
2018-03-24T19:22:20.709Z,56.99
2018-03-24T19:24:51.347Z,57.05
2018-03-24T19:27:22.191Z,57.19
2018-03-24T19:29:52.749Z,57.34
2018-03-24T19:32:24.086Z,57.24
2018-03-24T19:34:54.782Z,57.55
2018-03-24T19:37:25.419Z,57.65
2018-03-24T19:39:56.101Z,57.36
2018-03-24T19:42:26.152Z,57.42
2018-03-24T19:44:56.757Z,57.53
2018-03-24T19:47:27.828Z,57.85
2018-03-24T19:49:58.667Z,57.69
2018-03-24T19:52:29.733Z,57.82
2018-03-24T19:55:01.824Z,57.98
2018-03-24T19:57:32.407Z,58.07
2018-03-24T20:00:03.105Z,58.37
2018-03-24T20:02:34.204Z,58.46
2018-03-24T20:05:04.813Z,58.26
2018-03-24T20:07:35.679Z,58.13
2018-03-24T20:10:06.667Z,58.16
2018-03-24T20:12:37.713Z,58.31
2018-03-24T20:15:08.683Z,58.73
2018-03-24T20:17:39.762Z,59.25
2018-03-24T20:20:10.677Z,59.08
2018-03-24T20:22:41.736Z,59.33
2018-03-24T20:25:12.731Z,59.43
2018-03-24T20:27:43.788Z,59.47
2018-03-24T20:30:14.662Z,59.73
2018-03-24T20:32:45.762Z,59.99
2018-03-24T20:35:16.711Z,60.21
2018-03-24T20:37:47.772Z,60.50
2018-03-24T20:40:18.756Z,60.91
2018-03-24T20:42:50.481Z,60.88
2018-03-24T20:45:21.315Z,60.95
2018-03-24T20:47:51.295Z,60.92
2018-03-24T20:50:21.759Z,60.77
2018-03-24T20:52:54.896Z,60.72
2018-03-24T20:55:24.524Z,60.77
2018-03-24T20:57:55.333Z,61.08
2018-03-24T21:00:26.082Z,61.20
2018-03-24T21:02:56.788Z,61.23
2018-03-24T21:05:27.759Z,75.97
2018-03-24T21:07:58.547Z,71.48
2018-03-24T21:10:29.379Z,61.96
2018-03-24T21:12:59.887Z,57.70
2018-03-24T21:15:30.788Z,57.45
2018-03-24T21:18:01.826Z,57.86
2018-03-24T21:20:32.688Z,57.30
2018-03-24T21:23:03.626Z,58.29
2018-03-24T21:25:34.245Z,58.49
2018-03-24T21:28:04.120Z,59.01
2018-03-24T21:30:34.688Z,59.44
2018-03-24T21:33:05.819Z,59.63
2018-03-24T21:35:36.708Z,59.97
2018-03-24T21:38:07.374Z,60.41
2018-03-24T21:40:38.026Z,60.50
2018-03-24T21:43:08.075Z,60.52
2018-03-24T21:45:38.697Z,60.65
2018-03-24T21:48:09.726Z,60.66
2018-03-24T21:50:40.875Z,60.87
2018-03-24T21:53:11.771Z,61.64
2018-03-24T21:55:42.629Z,61.37
2018-03-24T21:58:13.667Z,61.97
2018-03-24T22:00:44.694Z,61.85
2018-03-24T22:03:15.351Z,61.62
2018-03-24T22:05:45.553Z,61.67
2018-03-24T22:08:16.591Z,61.46
2018-03-24T22:10:47.613Z,64.96
2018-03-24T22:13:18.584Z,77.57
2018-03-24T22:15:49.515Z,66.66
2018-03-24T22:18:20.422Z,59.02
2018-03-24T22:20:51.430Z,58.31
2018-03-24T22:23:22.486Z,58.32
2018-03-24T22:25:53.727Z,58.76
2018-03-24T22:28:24.772Z,58.94
2018-03-24T22:30:55.616Z,59.21
2018-03-24T22:33:26.773Z,59.74
2018-03-24T22:35:57.388Z,60.27
2018-03-24T22:38:28.084Z,60.67
2018-03-24T22:40:58.753Z,61.03
2018-03-24T22:43:29.664Z,61.20
2018-03-24T22:46:00.251Z,61.68
2018-03-24T22:48:31.204Z,62.16
2018-03-24T22:51:01.706Z,62.04
2018-03-24T22:53:32.734Z,61.89
2018-03-24T22:56:05.302Z,62.52
2018-03-24T22:58:34.623Z,62.72
2018-03-24T23:01:05.177Z,62.71
2018-03-24T23:03:35.828Z,62.49
2018-03-24T23:06:06.675Z,62.60
2018-03-24T23:08:37.740Z,62.73
2018-03-24T23:11:08.646Z,62.74
2018-03-24T23:13:39.716Z,62.85
2018-03-24T23:16:10.400Z,62.88
2018-03-24T23:18:41.744Z,62.79
2018-03-24T23:21:12.639Z,63.14
2018-03-24T23:23:43.448Z,63.47
2018-03-24T23:26:14.422Z,63.17
2018-03-24T23:28:45.084Z,64.23
2018-03-24T23:31:15.999Z,64.30
2018-03-24T23:33:46.740Z,63.98
2018-03-24T23:36:17.690Z,63.53
2018-03-24T23:38:48.727Z,63.31
2018-03-24T23:41:19.782Z,62.92
2018-03-24T23:43:50.832Z,62.96
2018-03-24T23:46:21.653Z,62.84
2018-03-24T23:48:52.306Z,62.89
2018-03-24T23:51:22.739Z,63.00
2018-03-24T23:53:53.755Z,63.15
2018-03-24T23:56:24.750Z,62.98
2018-03-24T23:58:55.627Z,63.42
